Time;durP1;ratioP1;P1;durP2;ratioP2;P2;SDS_P1;SDS_P2;PMS_P1;PMS_P2;Temp;Humidity;BMP_temperature;BMP_pressure;BME280_temperature;BME280_humidity;BME280_pressure;Samples;Min_cycle;Max_cycle;Signal;HPM_P1;HPM_P2
2023/09/04 00:02:36;;;;;;;2.42;2.33;;;;;;;;;;6212324;28;20300;-71
2023/09/04 00:05:40;;;;;;;2.70;2.60;;;;;;;;;;6212986;28;20578;-72
2023/09/04 00:08:45;;;;;;;5.22;2.83;;;;;;;;;;6213222;28;20301;-72
2023/09/04 00:11:48;;;;;;;4.88;2.33;;;;;;;;;;6212668;28;20292;-71
2023/09/04 00:14:52;;;;;;;2.92;2.83;;;;;;;;;;6212218;28;20312;-72
2023/09/04 00:17:56;;;;;;;2.88;2.70;;;;;;;;;;6213090;28;20293;-72
2023/09/04 00:21:00;;;;;;;4.43;2.60;;;;;;;;;;6212818;28;20297;-71
2023/09/04 00:24:05;;;;;;;5.88;2.38;;;;;;;;;;6213402;28;20312;-71
2023/09/04 00:27:09;;;;;;;1.90;1.90;;;;;;;;;;6212692;28;20321;-72
2023/09/04 00:30:14;;;;;;;3.97;3.00;;;;;;;;;;6213294;28;20301;-73
2023/09/04 00:33:18;;;;;;;2.40;2.30;;;;;;;;;;6211776;28;20293;-72
2023/09/04 00:36:22;;;;;;;2.53;2.40;;;;;;;;;;6212827;28;20356;-72
2023/09/04 00:39:27;;;;;;;2.60;2.40;;;;;;;;;;6228020;28;20474;-71
2023/09/04 00:42:33;;;;;;;2.33;2.05;;;;;;;;;;6211330;28;20607;-74
2023/09/04 00:45:37;;;;;;;3.00;2.38;;;;;;;;;;6212787;28;20305;-72
2023/09/04 00:48:41;;;;;;;2.45;2.35;;;;;;;;;;6228370;28;20581;-74
2023/09/04 00:51:45;;;;;;;5.00;2.75;;;;;;;;;;6232758;28;20300;-72
2023/09/04 00:54:50;;;;;;;2.55;2.42;;;;;;;;;;6227488;28;20317;-72
2023/09/04 00:57:54;;;;;;;2.13;2.10;;;;;;;;;;6211216;28;20293;-71
2023/09/04 01:00:58;;;;;;;3.90;2.50;;;;;;;;;;6211214;28;20448;-72
2023/09/04 01:04:02;;;;;;;2.47;2.42;;;;;;;;;;6226798;28;20321;-72
2023/09/04 01:07:05;;;;;;;2.50;2.30;;;;;;;;;;6211833;28;20346;-72
2023/09/04 01:10:11;;;;;;;6.00;2.90;;;;;;;;;;6211484;28;20288;-73
2023/09/04 01:13:20;;;;;;;3.70;2.72;;;;;;;;;;6212442;28;20306;-72
2023/09/04 01:16:25;;;;;;;2.42;2.40;;;;;;;;;;6212028;28;20297;-73
2023/09/04 01:19:29;;;;;;;3.90;2.50;;;;;;;;;;6227217;28;20312;-71
2023/09/04 01:22:34;;;;;;;2.88;2.55;;;;;;;;;;6211561;28;20316;-70
2023/09/04 01:25:46;;;;;;;2.00;2.00;;;;;;;;;;6211355;28;20296;-71
2023/09/04 01:28:58;;;;;;;3.60;2.20;;;;;;;;;;6211998;28;20484;-72
2023/09/04 01:32:07;;;;;;;2.60;2.60;;;;;;;;;;6210418;28;20562;-70
2023/09/04 01:35:12;;;;;;;3.08;2.50;;;;;;;;;;6210125;28;20301;-71
2023/09/04 01:38:18;;;;;;;4.53;2.20;;;;;;;;;;6210261;28;20609;-71
2023/09/04 01:41:24;;;;;;;2.60;2.50;;;;;;;;;;6210376;28;20313;-72
2023/09/04 01:44:28;;;;;;;3.17;2.40;;;;;;;;;;6211645;28;20597;-72
2023/09/04 01:47:32;;;;;;;6.97;2.50;;;;;;;;;;6210061;28;20418;-71
2023/09/04 01:50:35;;;;;;;5.03;2.50;;;;;;;;;;6209922;28;20297;-72
2023/09/04 01:53:41;;;;;;;2.22;2.13;;;;;;;;;;6211611;28;20304;-71
2023/09/04 01:56:44;;;;;;;2.67;2.45;;;;;;;;;;6209505;28;20296;-72
2023/09/04 01:59:48;;;;;;;2.45;2.45;;;;;;;;;;6210294;28;20305;-71
2023/09/04 02:02:52;;;;;;;3.30;2.25;;;;;;;;;;6208993;28;20308;-73
2023/09/04 02:05:56;;;;;;;2.45;2.25;;;;;;;;;;6209183;28;20425;-73
2023/09/04 02:09:02;;;;;;;2.55;2.40;;;;;;;;;;6210549;28;20304;-72
2023/09/04 02:12:07;;;;;;;4.63;2.47;;;;;;;;;;6210210;28;20304;-72
2023/09/04 02:15:11;;;;;;;2.30;2.20;;;;;;;;;;6210731;28;20309;-72
2023/09/04 02:18:15;;;;;;;2.78;2.40;;;;;;;;;;6209960;28;20300;-72
2023/09/04 02:21:19;;;;;;;2.15;2.00;;;;;;;;;;6209580;28;20325;-72
2023/09/04 02:24:24;;;;;;;2.30;2.20;;;;;;;;;;6210457;28;20330;-74
2023/09/04 02:27:28;;;;;;;4.60;2.47;;;;;;;;;;6209984;28;20305;-70
2023/09/04 02:30:32;;;;;;;2.85;2.42;;;;;;;;;;6209045;28;20309;-71
2023/09/04 02:33:36;;;;;;;3.08;2.53;;;;;;;;;;6225424;28;20340;-73
2023/09/04 02:36:40;;;;;;;2.45;2.20;;;;;;;;;;6229754;28;20301;-72
2023/09/04 02:39:45;;;;;;;2.47;2.38;;;;;;;;;;6225306;28;20494;-73
2023/09/04 02:42:48;;;;;;;3.42;2.35;;;;;;;;;;6209603;28;20305;-71
2023/09/04 02:45:53;;;;;;;4.10;2.90;;;;;;;;;;6209518;28;20338;-71
2023/09/04 02:48:57;;;;;;;2.40;2.20;;;;;;;;;;6209993;28;20570;-73
2023/09/04 02:52:00;;;;;;;3.97;2.88;;;;;;;;;;6208439;28;20305;-72
2023/09/04 02:55:07;;;;;;;2.72;2.50;;;;;;;;;;6210044;28;20389;-72
2023/09/04 02:58:11;;;;;;;2.35;2.35;;;;;;;;;;6209381;28;20653;-71
2023/09/04 03:01:16;;;;;;;3.08;2.70;;;;;;;;;;6208940;28;20372;-72
2023/09/04 03:04:20;;;;;;;2.92;2.72;;;;;;;;;;6194852;28;20313;-71
2023/09/04 03:07:26;;;;;;;8.65;3.40;;;;;;;;;;6201616;28;20605;-72
2023/09/04 03:10:32;;;;;;;2.60;2.40;;;;;;;;;;6208491;28;20285;-71
2023/09/04 03:13:36;;;;;;;2.72;2.50;;;;;;;;;;6209240;28;20305;-72
2023/09/04 03:16:41;;;;;;;2.42;2.33;;;;;;;;;;6224455;28;20598;-72
2023/09/04 03:19:45;;;;;;;2.80;2.60;;;;;;;;;;6195962;28;20472;-71
2023/09/04 03:22:49;;;;;;;3.88;2.40;;;;;;;;;;6184949;28;20313;-71
2023/09/04 03:25:54;;;;;;;5.07;2.90;;;;;;;;;;6184892;28;20310;-72
2023/09/04 03:28:58;;;;;;;5.97;2.70;;;;;;;;;;6183231;28;20289;-71
2023/09/04 03:32:02;;;;;;;6.78;2.92;;;;;;;;;;6184270;28;20313;-72
2023/09/04 03:35:07;;;;;;;4.55;2.88;;;;;;;;;;6186686;28;20297;-72
2023/09/04 03:38:13;;;;;;;3.53;2.95;;;;;;;;;;6211808;28;20498;-72
2023/09/04 03:41:18;;;;;;;2.90;2.70;;;;;;;;;;6214409;28;20361;-72
2023/09/04 03:44:22;;;;;;;5.05;3.03;;;;;;;;;;6213389;28;20301;-72
2023/09/04 03:47:26;;;;;;;2.72;2.53;;;;;;;;;;6213822;28;20480;-72
2023/09/04 03:50:30;;;;;;;3.50;2.83;;;;;;;;;;6213544;28;20309;-72
2023/09/04 03:53:33;;;;;;;3.53;2.83;;;;;;;;;;6214422;28;20288;-72
2023/09/04 03:56:39;;;;;;;3.80;2.95;;;;;;;;;;6212434;28;20714;-71
2023/09/04 03:59:42;;;;;;;4.28;2.83;;;;;;;;;;6212262;28;20479;-73
2023/09/04 04:02:47;;;;;;;4.82;3.00;;;;;;;;;;6211700;28;20313;-72
2023/09/04 04:05:52;;;;;;;4.95;3.13;;;;;;;;;;6228914;28;20288;-73
2023/09/04 04:08:55;;;;;;;4.07;3.03;;;;;;;;;;6213262;28;20305;-71
2023/09/04 04:12:01;;;;;;;3.28;3.03;;;;;;;;;;6213742;28;20386;-71
2023/09/04 04:15:06;;;;;;;3.35;3.03;;;;;;;;;;6212121;28;20436;-71
2023/09/04 04:18:10;;;;;;;2.90;2.60;;;;;;;;;;6211930;28;20297;-71
2023/09/04 04:21:14;;;;;;;4.28;2.83;;;;;;;;;;6213377;28;20443;-71
2023/09/04 04:24:19;;;;;;;3.42;2.92;;;;;;;;;;6211679;28;20319;-71
2023/09/04 04:27:24;;;;;;;2.97;2.78;;;;;;;;;;6212224;28;20302;-72
2023/09/04 04:30:28;;;;;;;5.35;3.20;;;;;;;;;;6212876;28;20298;-72
2023/09/04 04:33:32;;;;;;;6.97;3.05;;;;;;;;;;6212761;28;20313;-71
2023/09/04 04:36:36;;;;;;;6.18;3.40;;;;;;;;;;6211997;28;20304;-73
2023/09/04 04:39:40;;;;;;;6.95;3.03;;;;;;;;;;6211191;28;20510;-71
2023/09/04 04:42:45;;;;;;;4.30;2.97;;;;;;;;;;6211459;28;20313;-72
2023/09/04 04:45:49;;;;;;;6.47;3.05;;;;;;;;;;6211903;28;20289;-72
2023/09/04 04:48:53;;;;;;;4.43;3.10;;;;;;;;;;6211372;28;20300;-72
2023/09/04 04:51:57;;;;;;;7.15;3.50;;;;;;;;;;6227800;28;20373;-73
2023/09/04 04:55:01;;;;;;;6.18;3.22;;;;;;;;;;6211445;28;20307;-74
2023/09/04 04:58:06;;;;;;;5.13;2.90;;;;;;;;;;6212446;28;20364;-73
2023/09/04 05:01:10;;;;;;;3.78;2.70;;;;;;;;;;6211907;28;20301;-73
2023/09/04 05:04:14;;;;;;;6.68;3.28;;;;;;;;;;6210634;28;20305;-71
2023/09/04 05:07:20;;;;;;;3.00;2.95;;;;;;;;;;6227513;28;20292;-73
2023/09/04 05:10:24;;;;;;;5.70;3.05;;;;;;;;;;6211852;28;20293;-72
2023/09/04 05:13:29;;;;;;;4.00;3.00;;;;;;;;;;6211054;28;20312;-72
2023/09/04 05:16:33;;;;;;;11.63;3.22;;;;;;;;;;6212732;28;20297;-72
2023/09/04 05:19:37;;;;;;;4.13;3.00;;;;;;;;;;6211104;28;20305;-72
2023/09/04 05:22:41;;;;;;;3.95;3.15;;;;;;;;;;6211121;28;20296;-72
2023/09/04 05:25:49;;;;;;;8.15;3.58;;;;;;;;;;6211937;28;20612;-72
2023/09/04 05:28:54;;;;;;;20.25;3.10;;;;;;;;;;6212392;28;20321;-71
2023/09/04 05:31:58;;;;;;;5.82;3.47;;;;;;;;;;6212535;28;20301;-71
2023/09/04 05:35:02;;;;;;;6.45;3.55;;;;;;;;;;6211621;28;20304;-72
2023/09/04 05:38:06;;;;;;;5.78;3.13;;;;;;;;;;6210130;28;20565;-77
2023/09/04 05:41:09;;;;;;;3.92;3.30;;;;;;;;;;6212016;28;20254;-72
2023/09/04 05:44:15;;;;;;;7.53;3.15;;;;;;;;;;6210199;28;20301;-72
2023/09/04 05:47:18;;;;;;;5.95;3.75;;;;;;;;;;6211984;28;20274;-73
2023/09/04 05:50:22;;;;;;;3.72;3.42;;;;;;;;;;6211124;28;20430;-72
2023/09/04 05:53:26;;;;;;;5.43;3.40;;;;;;;;;;6211481;28;20320;-72
2023/09/04 05:56:30;;;;;;;9.05;3.45;;;;;;;;;;6210926;28;20304;-73
2023/09/04 05:59:35;;;;;;;7.32;3.60;;;;;;;;;;6211074;28;20293;-72
2023/09/04 06:02:39;;;;;;;5.00;3.40;;;;;;;;;;6211135;28;20321;-72
2023/09/04 06:05:43;;;;;;;4.55;3.40;;;;;;;;;;6210488;28;20601;-72
2023/09/04 06:08:46;;;;;;;5.55;3.38;;;;;;;;;;6209491;28;20293;-72
2023/09/04 06:11:51;;;;;;;8.50;3.63;;;;;;;;;;6210892;28;20300;-72
2023/09/04 06:14:56;;;;;;;3.58;3.38;;;;;;;;;;6210345;28;20301;-73
2023/09/04 06:18:00;;;;;;;5.43;3.50;;;;;;;;;;6210064;28;20309;-73
2023/09/04 06:21:04;;;;;;;5.60;3.08;;;;;;;;;;6210846;28;20297;-74
2023/09/04 06:24:08;;;;;;;8.10;3.78;;;;;;;;;;6210303;28;20285;-72
2023/09/04 06:27:12;;;;;;;5.90;3.60;;;;;;;;;;6210534;28;20297;-72
2023/09/04 06:30:17;;;;;;;6.60;3.70;;;;;;;;;;6210009;28;20572;-71
2023/09/04 06:33:21;;;;;;;7.40;3.30;;;;;;;;;;6209897;28;20317;-72
2023/09/04 06:36:24;;;;;;;3.40;3.17;;;;;;;;;;6210743;28;20317;-72
2023/09/04 06:39:28;;;;;;;4.25;3.22;;;;;;;;;;6209888;28;20297;-72
2023/09/04 06:42:32;;;;;;;4.53;3.08;;;;;;;;;;6210489;28;20304;-73
2023/09/04 06:45:38;;;;;;;8.40;3.15;;;;;;;;;;6209919;28;20464;-73
2023/09/04 06:48:42;;;;;;;3.83;3.53;;;;;;;;;;6209505;28;20294;-72
2023/09/04 06:51:46;;;;;;;3.22;2.95;;;;;;;;;;6210112;28;20301;-72
2023/09/04 06:54:50;;;;;;;6.82;3.70;;;;;;;;;;6209588;28;20308;-72
2023/09/04 06:57:53;;;;;;;7.32;3.40;;;;;;;;;;6209548;28;20354;-73
2023/09/04 07:00:59;;;;;;;8.90;3.95;;;;;;;;;;6210191;28;20301;-72
2023/09/04 07:04:03;;;;;;;4.07;3.20;;;;;;;;;;6231727;28;20302;-73
2023/09/04 07:07:06;;;;;;;7.22;3.13;;;;;;;;;;6209351;28;20305;-73
2023/09/04 07:10:11;;;;;;;4.03;3.40;;;;;;;;;;6209001;28;20301;-73
2023/09/04 07:13:14;;;;;;;4.20;3.05;;;;;;;;;;6208124;28;20304;-72
2023/09/04 07:16:20;;;;;;;5.30;3.03;;;;;;;;;;6209763;28;20296;-73
2023/09/04 07:19:39;;;;;;;3.53;3.25;;;;;;;;;;6208910;28;20230;-72
2023/09/04 07:22:43;;;;;;;10.27;3.38;;;;;;;;;;6209394;28;20292;-73
2023/09/04 07:25:47;;;;;;;4.75;2.80;;;;;;;;;;6210104;28;20313;-72
2023/09/04 07:28:52;;;;;;;5.25;2.65;;;;;;;;;;6209476;28;20308;-71
2023/09/04 07:31:58;;;;;;;7.18;3.08;;;;;;;;;;6209786;28;20392;-72
2023/09/04 07:35:03;;;;;;;3.08;2.80;;;;;;;;;;6209901;28;20312;-72
2023/09/04 07:38:07;;;;;;;3.80;2.78;;;;;;;;;;6208065;28;20296;-72
2023/09/04 07:41:11;;;;;;;2.88;2.67;;;;;;;;;;6209137;28;20241;-72
2023/09/04 07:44:15;;;;;;;7.47;3.15;;;;;;;;;;6208833;28;20305;-72
2023/09/04 07:47:20;;;;;;;6.85;3.65;;;;;;;;;;6209241;28;20234;-72
2023/09/04 07:50:24;;;;;;;10.60;3.40;;;;;;;;;;6209199;28;20288;-72
2023/09/04 07:53:27;;;;;;;3.53;2.50;;;;;;;;;;6207836;28;20320;-71
2023/09/04 07:56:31;;;;;;;4.07;2.45;;;;;;;;;;6209146;28;20304;-73
2023/09/04 07:59:44;;;;;;;4.78;2.75;;;;;;;;;;6209081;28;20300;-71
2023/09/04 08:02:50;;;;;;;4.20;2.80;;;;;;;;;;6208524;28;20313;-71
2023/09/04 08:05:54;;;;;;;2.95;2.83;;;;;;;;;;6209368;28;20300;-71
2023/09/04 08:08:57;;;;;;;4.47;3.17;;;;;;;;;;6208510;28;20409;-73
2023/09/04 08:12:01;;;;;;;5.57;2.85;;;;;;;;;;6208859;28;20313;-72
2023/09/04 08:15:08;;;;;;;4.97;2.67;;;;;;;;;;6208741;28;20292;-70
2023/09/04 08:18:13;;;;;;;5.35;3.22;;;;;;;;;;6208309;28;20289;-73
2023/09/04 08:21:17;;;;;;;5.55;2.85;;;;;;;;;;6213053;28;20297;-72
2023/09/04 08:24:21;;;;;;;5.88;2.83;;;;;;;;;;6212605;28;20301;-73
2023/09/04 08:27:24;;;;;;;6.88;2.75;;;;;;;;;;6212496;28;20297;-72
2023/09/04 08:30:28;;;;;;;5.13;2.90;;;;;;;;;;6211568;28;20490;-74
2023/09/04 08:33:34;;;;;;;2.83;2.63;;;;;;;;;;6212703;28;20285;-75
2023/09/04 08:36:38;;;;;;;3.40;3.10;;;;;;;;;;6228244;28;20309;-72
2023/09/04 08:39:42;;;;;;;4.45;2.53;;;;;;;;;;6212589;28;20305;-73
2023/09/04 08:42:46;;;;;;;2.53;2.33;;;;;;;;;;6212230;28;20300;-72
2023/09/04 08:45:51;;;;;;;8.95;2.80;;;;;;;;;;6213034;28;20309;-72
2023/09/04 08:48:57;;;;;;;3.58;3.20;;;;;;;;;;6212641;28;20289;-72
2023/09/04 08:52:02;;;;;;;3.85;2.70;;;;;;;;;;6212991;28;20292;-72
2023/09/04 08:55:06;;;;;;;3.33;2.53;;;;;;;;;;6212277;28;20310;-72
2023/09/04 08:58:10;;;;;;;4.80;2.83;;;;;;;;;;6211139;28;20435;-73
2023/09/04 09:01:15;;;;;;;5.60;2.55;;;;;;;;;;6212499;28;20304;-72
2023/09/04 09:04:21;;;;;;;2.72;2.53;;;;;;;;;;6211682;28;20377;-72
2023/09/04 09:07:27;;;;;;;6.18;2.90;;;;;;;;;;6211609;28;20296;-72
2023/09/04 09:10:31;;;;;;;3.90;2.83;;;;;;;;;;6211943;28;20313;-72
2023/09/04 09:13:35;;;;;;;2.95;2.67;;;;;;;;;;6211760;28;20285;-72
2023/09/04 09:16:39;;;;;;;4.85;2.70;;;;;;;;;;6211976;28;20593;-72
2023/09/04 09:19:45;;;;;;;4.25;2.53;;;;;;;;;;6211356;28;20301;-74
2023/09/04 09:22:51;;;;;;;6.68;2.60;;;;;;;;;;6211714;28;20441;-72
2023/09/04 09:25:55;;;;;;;4.93;2.70;;;;;;;;;;6211802;28;20581;-72
2023/09/04 09:28:59;;;;;;;4.28;2.70;;;;;;;;;;6211291;28;20289;-72
2023/09/04 09:32:04;;;;;;;3.35;2.85;;;;;;;;;;6210866;28;20301;-71
2023/09/04 09:35:10;;;;;;;2.95;2.75;;;;;;;;;;6210321;28;20321;-74
2023/09/04 09:38:14;;;;;;;4.88;2.47;;;;;;;;;;6210914;28;20293;-74
2023/09/04 09:41:17;;;;;;;3.83;2.70;;;;;;;;;;6211452;28;20269;-72
2023/09/04 09:44:21;;;;;;;2.63;2.42;;;;;;;;;;6209880;28;20589;-73
2023/09/04 09:47:25;;;;;;;2.50;2.40;;;;;;;;;;6211658;28;20301;-73
2023/09/04 09:50:31;;;;;;;4.75;2.55;;;;;;;;;;6211019;28;20304;-73
2023/09/04 09:53:44;;;;;;;3.00;2.70;;;;;;;;;;6211358;28;20304;-72
2023/09/04 09:56:48;;;;;;;4.18;2.60;;;;;;;;;;6211720;28;20289;-71
2023/09/04 09:59:52;;;;;;;4.78;2.75;;;;;;;;;;6210762;28;20308;-73
2023/09/04 10:02:56;;;;;;;2.75;2.40;;;;;;;;;;6210631;28;20312;-72
2023/09/04 10:06:04;;;;;;;2.40;2.20;;;;;;;;;;6211695;28;20292;-73
2023/09/04 10:09:11;;;;;;;2.88;2.65;;;;;;;;;;6209526;28;20498;-73
2023/09/04 10:12:20;;;;;;;2.78;2.50;;;;;;;;;;6210796;28;20300;-73
2023/09/04 10:15:26;;;;;;;3.05;2.30;;;;;;;;;;6210621;28;20297;-73
2023/09/04 10:18:31;;;;;;;3.53;2.47;;;;;;;;;;6210333;28;20296;-73
2023/09/04 10:21:40;;;;;;;3.53;2.50;;;;;;;;;;6210847;28;20324;-72
2023/09/04 10:24:46;;;;;;;2.33;2.15;;;;;;;;;;6210332;28;20495;-72
2023/09/04 10:27:51;;;;;;;3.00;2.30;;;;;;;;;;6210176;28;20293;-72
2023/09/04 10:30:57;;;;;;;3.60;2.28;;;;;;;;;;6210902;28;20306;-72
2023/09/04 10:34:01;;;;;;;6.95;2.50;;;;;;;;;;6210179;28;20298;-73
2023/09/04 10:37:07;;;;;;;4.43;2.63;;;;;;;;;;6192996;28;20306;-72
2023/09/04 10:40:11;;;;;;;2.80;2.60;;;;;;;;;;6185954;28;20293;-73
2023/09/04 10:43:16;;;;;;;2.78;2.45;;;;;;;;;;6186026;28;20582;-72
2023/09/04 10:46:20;;;;;;;2.33;2.10;;;;;;;;;;6186478;28;20298;-73
2023/09/04 10:49:30;;;;;;;3.47;2.30;;;;;;;;;;6185668;28;20309;-73
2023/09/04 10:52:42;;;;;;;2.50;2.30;;;;;;;;;;6186150;28;20302;-73
2023/09/04 10:56:12;;;;;;;4.55;2.40;;;;;;;;;;6185292;28;20318;-75
2023/09/04 10:59:15;;;;;;;4.57;2.33;;;;;;;;;;6184927;28;20313;-72
2023/09/04 11:02:27;;;;;;;4.32;2.50;;;;;;;;;;6185508;28;20281;-74
2023/09/04 11:05:31;;;;;;;2.85;2.20;;;;;;;;;;6186049;28;20309;-72
2023/09/04 11:08:38;;;;;;;4.85;2.70;;;;;;;;;;6185817;28;20302;-73
2023/09/04 11:11:43;;;;;;;6.18;2.08;;;;;;;;;;6204225;28;20293;-72
2023/09/04 11:14:47;;;;;;;8.68;2.50;;;;;;;;;;6209164;28;20316;-73
2023/09/04 11:17:51;;;;;;;7.93;2.50;;;;;;;;;;6209303;28;20284;-72
2023/09/04 11:20:56;;;;;;;4.63;2.33;;;;;;;;;;6209661;28;20338;-72
2023/09/04 11:24:03;;;;;;;7.57;2.67;;;;;;;;;;6209395;28;20316;-71
2023/09/04 11:27:06;;;;;;;2.75;2.58;;;;;;;;;;6208521;28;20606;-73
2023/09/04 11:30:11;;;;;;;3.75;2.50;;;;;;;;;;6209205;28;20786;-72
2023/09/04 11:33:15;;;;;;;3.03;2.72;;;;;;;;;;6209193;28;20298;-73
2023/09/04 11:36:18;;;;;;;2.78;2.55;;;;;;;;;;6209557;28;20300;-73
2023/09/04 11:39:24;;;;;;;3.20;2.83;;;;;;;;;;6209456;28;20569;-72
2023/09/04 11:42:28;;;;;;;3.38;2.60;;;;;;;;;;6209314;28;20372;-73
2023/09/04 11:45:33;;;;;;;2.50;2.33;;;;;;;;;;6208955;28;20435;-73
2023/09/04 11:48:36;;;;;;;3.95;2.72;;;;;;;;;;6207861;28;20292;-72
2023/09/04 11:51:40;;;;;;;5.63;2.58;;;;;;;;;;6209444;28;20308;-72
2023/09/04 11:54:45;;;;;;;2.65;2.47;;;;;;;;;;6211013;28;20320;-78
2023/09/04 11:57:52;;;;;;;3.20;3.00;;;;;;;;;;6214531;28;20305;-73
2023/09/04 12:00:56;;;;;;;2.67;2.35;;;;;;;;;;6229192;28;20312;-72
2023/09/04 12:04:02;;;;;;;2.70;2.53;;;;;;;;;;6212659;28;20597;-72
2023/09/04 12:07:07;;;;;;;2.75;2.55;;;;;;;;;;6213905;28;20305;-72
2023/09/04 12:10:12;;;;;;;3.10;2.40;;;;;;;;;;6213057;28;20370;-73
2023/09/04 12:13:17;;;;;;;5.47;2.70;;;;;;;;;;6213256;28;20293;-73
2023/09/04 12:16:21;;;;;;;3.90;2.78;;;;;;;;;;6213700;28;20309;-72
2023/09/04 12:19:25;;;;;;;3.10;2.60;;;;;;;;;;6213058;28;20296;-74
2023/09/04 12:22:29;;;;;;;5.97;2.53;;;;;;;;;;6213272;28;20301;-71
2023/09/04 12:25:36;;;;;;;2.75;2.55;;;;;;;;;;6213039;28;20624;-72
2023/09/04 12:28:40;;;;;;;3.00;2.60;;;;;;;;;;6212580;28;20292;-73
2023/09/04 12:31:44;;;;;;;3.60;2.72;;;;;;;;;;6213652;28;20449;-72
2023/09/04 12:34:50;;;;;;;5.15;2.50;;;;;;;;;;6213034;28;20304;-71
2023/09/04 12:37:54;;;;;;;4.82;2.88;;;;;;;;;;6212869;28;20294;-73
2023/09/04 12:40:59;;;;;;;5.88;2.65;;;;;;;;;;6213302;28;20313;-73
2023/09/04 12:44:03;;;;;;;11.68;3.10;;;;;;;;;;6212375;28;20316;-73
2023/09/04 12:47:07;;;;;;;11.25;2.72;;;;;;;;;;6210952;28;20285;-73
2023/09/04 12:50:11;;;;;;;6.28;2.95;;;;;;;;;;6212517;28;20309;-72
2023/09/04 12:53:15;;;;;;;4.93;2.33;;;;;;;;;;6212165;28;20288;-73
2023/09/04 12:56:20;;;;;;;4.95;2.33;;;;;;;;;;6212503;28;20278;-73
2023/09/04 12:59:25;;;;;;;4.43;2.80;;;;;;;;;;6212196;28;20394;-73
2023/09/04 13:02:28;;;;;;;2.67;2.45;;;;;;;;;;6211966;28;20313;-73
2023/09/04 13:05:32;;;;;;;5.93;2.58;;;;;;;;;;6211882;28;20308;-71
2023/09/04 13:08:36;;;;;;;4.60;2.55;;;;;;;;;;6211957;28;20430;-72
2023/09/04 13:11:41;;;;;;;2.47;2.38;;;;;;;;;;6212244;28;20618;-72
2023/09/04 13:14:45;;;;;;;3.00;2.80;;;;;;;;;;6210677;28;20289;-74
2023/09/04 13:17:49;;;;;;;9.05;2.70;;;;;;;;;;6211663;28;20292;-75
2023/09/04 13:20:53;;;;;;;2.80;2.70;;;;;;;;;;6212168;28;20398;-73
2023/09/04 13:23:56;;;;;;;2.60;2.50;;;;;;;;;;6211585;28;20589;-74
2023/09/04 13:27:01;;;;;;;5.97;2.47;;;;;;;;;;6212058;28;20558;-72
2023/09/04 13:30:08;;;;;;;5.32;2.72;;;;;;;;;;6211782;28;20308;-74
2023/09/04 13:33:11;;;;;;;2.92;2.70;;;;;;;;;;6211391;28;20313;-72
2023/09/04 13:36:15;;;;;;;4.78;2.65;;;;;;;;;;6211925;28;20308;-72
2023/09/04 13:39:19;;;;;;;3.00;2.25;;;;;;;;;;6211048;28;20293;-73
2023/09/04 13:42:24;;;;;;;4.75;3.15;;;;;;;;;;6211325;28;20332;-71
2023/09/04 13:45:28;;;;;;;4.93;4.53;;;;;;;;;;6211170;28;20289;-73
2023/09/04 13:48:32;;;;;;;7.13;2.63;;;;;;;;;;6210861;28;20293;-73
2023/09/04 13:51:35;;;;;;;5.70;3.80;;;;;;;;;;6211632;28;20293;-71
2023/09/04 13:54:39;;;;;;;5.25;4.85;;;;;;;;;;6210820;28;20321;-75
2023/09/04 13:57:44;;;;;;;4.45;2.92;;;;;;;;;;6210510;28;20305;-72
2023/09/04 14:00:48;;;;;;;4.40;2.63;;;;;;;;;;6211194;28;20430;-72
2023/09/04 14:03:52;;;;;;;3.90;2.50;;;;;;;;;;6210042;28;20304;-71
2023/09/04 14:06:55;;;;;;;2.70;2.50;;;;;;;;;;6211072;28;20312;-71
2023/09/04 14:09:59;;;;;;;2.40;2.30;;;;;;;;;;6210169;28;20301;-73
2023/09/04 14:13:04;;;;;;;2.30;2.30;;;;;;;;;;6210567;28;20296;-73
2023/09/04 14:16:08;;;;;;;3.70;3.17;;;;;;;;;;6209847;28;20478;-71
2023/09/04 14:19:13;;;;;;;3.42;3.13;;;;;;;;;;6209895;28;20600;-72
2023/09/04 14:22:17;;;;;;;3.65;2.63;;;;;;;;;;6210664;28;20434;-73
2023/09/04 14:25:20;;;;;;;2.80;2.60;;;;;;;;;;6210091;28;20301;-72
2023/09/04 14:28:26;;;;;;;3.47;2.80;;;;;;;;;;6210264;28;20292;-72
2023/09/04 14:31:30;;;;;;;4.68;2.40;;;;;;;;;;6210768;28;20293;-73
2023/09/04 14:34:34;;;;;;;6.43;2.70;;;;;;;;;;6209078;28;20483;-72
2023/09/04 14:37:38;;;;;;;2.40;2.30;;;;;;;;;;6210578;28;20316;-73
2023/09/04 14:40:47;;;;;;;2.70;2.45;;;;;;;;;;6209827;28;20292;-72
2023/09/04 14:43:52;;;;;;;4.43;2.38;;;;;;;;;;6209423;28;20471;-75
2023/09/04 14:46:56;;;;;;;3.15;2.13;;;;;;;;;;6209867;28;20326;-72
2023/09/04 14:49:59;;;;;;;2.40;2.25;;;;;;;;;;6209492;28;20301;-73
2023/09/04 14:53:04;;;;;;;1.92;1.92;;;;;;;;;;6209134;28;20288;-73
2023/09/04 14:56:08;;;;;;;2.10;2.00;;;;;;;;;;6209083;28;20286;-72
2023/09/04 14:59:13;;;;;;;4.93;1.90;;;;;;;;;;6209369;28;20492;-72
2023/09/04 15:02:17;;;;;;;2.33;1.77;;;;;;;;;;6208461;28;20277;-76
2023/09/04 15:05:21;;;;;;;1.92;1.77;;;;;;;;;;6209426;28;20308;-73
2023/09/04 15:08:25;;;;;;;4.95;1.98;;;;;;;;;;6209097;28;20465;-73
2023/09/04 15:11:31;;;;;;;4.38;2.10;;;;;;;;;;6208867;28;20301;-73
2023/09/04 15:14:36;;;;;;;2.60;1.77;;;;;;;;;;6209313;28;20304;-72
2023/09/04 15:17:40;;;;;;;5.32;1.80;;;;;;;;;;6209409;28;20298;-74
2023/09/04 15:20:44;;;;;;;7.28;1.88;;;;;;;;;;6208693;28;20293;-73
2023/09/04 15:23:48;;;;;;;2.92;1.80;;;;;;;;;;6209041;28;20301;-73
2023/09/04 15:26:51;;;;;;;2.20;2.10;;;;;;;;;;6209590;28;20309;-72
2023/09/04 15:29:56;;;;;;;3.35;2.00;;;;;;;;;;6211443;28;20470;-73
2023/09/04 15:33:00;;;;;;;3.78;2.05;;;;;;;;;;6212726;28;20316;-73
2023/09/04 15:36:05;;;;;;;1.80;1.80;;;;;;;;;;6212937;28;20341;-73
2023/09/04 15:39:08;;;;;;;2.28;2.15;;;;;;;;;;6214057;28;20355;-74
2023/09/04 15:42:13;;;;;;;2.30;2.00;;;;;;;;;;6214372;28;20322;-72
2023/09/04 15:45:18;;;;;;;2.80;1.92;;;;;;;;;;6214064;28;20462;-71
2023/09/04 15:48:22;;;;;;;5.05;2.10;;;;;;;;;;6214158;28;20296;-73
2023/09/04 15:51:26;;;;;;;2.13;1.70;;;;;;;;;;6214155;28;20380;-72
2023/09/04 15:54:30;;;;;;;1.80;1.67;;;;;;;;;;6212762;28;20315;-74
2023/09/04 15:57:34;;;;;;;7.07;1.92;;;;;;;;;;6214517;28;20301;-73
2023/09/04 16:00:39;;;;;;;2.00;1.80;;;;;;;;;;6213435;28;20605;-73
2023/09/04 16:03:43;;;;;;;1.75;1.70;;;;;;;;;;6212929;28;20297;-72
2023/09/04 16:06:47;;;;;;;3.65;2.22;;;;;;;;;;6214111;28;20300;-72
2023/09/04 16:09:51;;;;;;;4.13;1.73;;;;;;;;;;6213467;28;20288;-74
2023/09/04 16:12:55;;;;;;;3.03;2.10;;;;;;;;;;6213105;28;20557;-73
2023/09/04 16:16:00;;;;;;;3.03;2.25;;;;;;;;;;6213800;28;20297;-73
2023/09/04 16:19:04;;;;;;;6.22;2.10;;;;;;;;;;6213103;28;20442;-73
2023/09/04 16:22:07;;;;;;;2.85;1.98;;;;;;;;;;6213612;28;20301;-72
2023/09/04 16:25:12;;;;;;;5.95;2.05;;;;;;;;;;6212720;28;20308;-72
2023/09/04 16:28:19;;;;;;;6.47;3.25;;;;;;;;;;6212833;28;20304;-72
2023/09/04 16:31:28;;;;;;;2.72;2.40;;;;;;;;;;6213635;28;20301;-73
2023/09/04 16:34:32;;;;;;;6.32;2.25;;;;;;;;;;6212664;28;20301;-72
2023/09/04 16:37:37;;;;;;;4.50;2.45;;;;;;;;;;6212475;28;20300;-71
2023/09/04 16:40:41;;;;;;;8.68;2.70;;;;;;;;;;6211733;28;20296;-74
2023/09/04 16:43:45;;;;;;;4.40;2.33;;;;;;;;;;6212211;28;20296;-73
2023/09/04 16:46:50;;;;;;;3.25;2.30;;;;;;;;;;6213098;28;20304;-73
2023/09/04 16:49:54;;;;;;;10.38;2.63;;;;;;;;;;6212374;28;20479;-72
2023/09/04 16:52:57;;;;;;;6.68;2.30;;;;;;;;;;6212513;28;20332;-73
2023/09/04 16:56:01;;;;;;;5.20;2.35;;;;;;;;;;6212837;28;20313;-72
2023/09/04 16:59:06;;;;;;;4.15;2.63;;;;;;;;;;6211454;28;20293;-72
2023/09/04 17:02:11;;;;;;;3.67;2.35;;;;;;;;;;6212331;28;20265;-73
2023/09/04 17:05:15;;;;;;;4.68;2.38;;;;;;;;;;6211814;28;20300;-73
2023/09/04 17:08:19;;;;;;;4.35;2.83;;;;;;;;;;6211776;28;20297;-73
2023/09/04 17:11:23;;;;;;;6.00;2.67;;;;;;;;;;6212243;28;20262;-72
2023/09/04 17:14:27;;;;;;;3.05;2.30;;;;;;;;;;6211581;28;20289;-72
2023/09/04 17:17:32;;;;;;;4.13;2.70;;;;;;;;;;6212573;28;20573;-73
2023/09/04 17:20:36;;;;;;;8.40;3.22;;;;;;;;;;6211951;28;20468;-73
2023/09/04 17:23:39;;;;;;;7.13;3.22;;;;;;;;;;6211901;28;20309;-72
2023/09/04 17:26:43;;;;;;;5.00;2.78;;;;;;;;;;6211723;28;20293;-72
2023/09/04 17:29:47;;;;;;;8.75;3.00;;;;;;;;;;6211982;28;20305;-71
2023/09/04 17:32:54;;;;;;;5.43;2.80;;;;;;;;;;6211327;28;20419;-71
2023/09/04 17:36:01;;;;;;;2.75;2.55;;;;;;;;;;6211641;28;20449;-72
2023/09/04 17:39:05;;;;;;;2.33;2.30;;;;;;;;;;6211560;28;20296;-73
2023/09/04 17:42:08;;;;;;;7.00;2.60;;;;;;;;;;6212559;28;20314;-72
2023/09/04 17:45:12;;;;;;;4.20;2.35;;;;;;;;;;6211319;28;20305;-73
2023/09/04 17:48:17;;;;;;;5.68;2.47;;;;;;;;;;6211020;28;20293;-72
2023/09/04 17:51:21;;;;;;;2.88;2.38;;;;;;;;;;6210965;28;20316;-72
2023/09/04 17:54:25;;;;;;;2.97;2.58;;;;;;;;;;6210593;28;20301;-72
2023/09/04 17:57:29;;;;;;;6.28;2.80;;;;;;;;;;6210616;28;20292;-72
2023/09/04 18:00:32;;;;;;;3.33;2.42;;;;;;;;;;6209359;28;20289;-71
2023/09/04 18:03:38;;;;;;;3.08;2.50;;;;;;;;;;6210521;28;20617;-70
2023/09/04 18:06:42;;;;;;;2.25;2.15;;;;;;;;;;6211653;28;20320;-70
2023/09/04 18:09:46;;;;;;;2.85;2.65;;;;;;;;;;6210671;28;20324;-71
2023/09/04 18:12:50;;;;;;;2.83;2.55;;;;;;;;;;6210090;28;20305;-71
2023/09/04 18:15:54;;;;;;;4.03;2.60;;;;;;;;;;6211341;28;20301;-69
2023/09/04 18:18:59;;;;;;;6.10;2.97;;;;;;;;;;6210903;28;20304;-70
2023/09/04 18:22:03;;;;;;;5.53;2.67;;;;;;;;;;6211175;28;20429;-72
2023/09/04 18:25:10;;;;;;;3.38;2.70;;;;;;;;;;6208965;28;20297;-72
2023/09/04 18:28:14;;;;;;;6.03;2.60;;;;;;;;;;6209985;28;20315;-71